Main page
METAR-TAF:

METAR-TAF

Airports :

Stokmarknes Airport. Skagen

Stokmarknes, Norway

latitude: 68-35N, longitude: 015-01E, elevation: 0 m

Current weather observation

The report was made 28 minutes ago, at 17:20 UTC
Wind 10 kt from the West
Temperature 14°C
Humidity 94%
Pressure 1013 hPa
Visibility 10 km or more
Few clouds at a height of 400 ft
Scattered clouds at a height of 1000 ft
Broken clouds at a height of 1400 ft

METAR: ENSK 231720Z 27010KT 9999 FEW004 SCT010 BKN014 14/13 Q1013

Time: 19:48 (17:48 UTC)

Forecast

The report was made 6 hours and 48 minutes ago, at 11:00 UTC
Forecast valid from 23 at 12 UTC to 23 at 20 UTC
Wind 10 kt from the West
Visibility 10 km or more
Few clouds at a height of 4000 ft
Probability 40% :
Temporary
from 23 at 12 UTC to 23 at 20 UTC
Scattered clouds at a height of 300 ft
Broken clouds at a height of 600 ft
Scattered clouds at a height of 4000 ft, Cumulonimbus.
rain showers,

TAF: ENSK 231100Z 2312/2320 28010KT 9999 FEW040 PROB40 TEMPO 2312/2320 SHRA SCT003 BKN006 SCT040CB

Weather observations and forecasts of more than 4000 airports (METAR and TAF reports).

The available stations are represented by yellow and red dots on the map.

Hover mouse over dot to see the name of the station.

Then click to see weather observations and forecasts.

To change the map : click on the green buttons with a black cross to zoom in, on the green button with a dash to zoom out, or on the green arrows for adjacent maps.


METAR-TAF: